TDCF

Details ICAO TDCF (DCF)
Name Dominica/Canefield
Region Dominica
Timezone America/Dominica (UTC-4.0)
Plans Departing 18
Arriving 33
Stats Elevation 13 ft / 4 m (AMSL)
Location 15.336718° -61.392211°
Runways 1
Magnetic Variation 14.926° W
Sunrise 2018-05-23 09:36:23 UTC / 2018-05-23 05:36:23 Local
Sunset 2018-05-23 22:31:08 UTC / 2018-05-23 18:31:08 Local
Advertisement - Login to hide

Runways

ID Width Length Bearing (true) Bearing (mag) Surface Threshold Offset Overrun Length
01 75 ft / 23 m 3,152 ft / 961 m 356.38° 11.31° Asphalt 476 ft / 145 m 0 ft / 0 m
19 75 ft / 23 m 3,152 ft / 961 m 176.38° 191.31° Asphalt 0 ft / 0 m 0 ft / 0 m

Map

Weather


0- 5 10 15 20 25 30 35+ Temperature / ° C

Clouds and Precipitation
Forecast for 2018-05-23 12:00 UTC. Updated 2 hours ago

Ground ~20,000 ft ~40,000 ft Winds

METAR

TDCF 231200Z 11003KT 9999 -SHRA FEW016 SCT038 26/22 Q1016

TAF

Not found

Frequencies

Tower 118.70 MHz TWR
Warning: Do not use this data for real-world aviation or navigation. No guarantee of current accuracy is given.